Airfield :
LOGIN :

Register | Disclaimer

   EN    FR    IT 

 










Legend :    VFR   Marginal VFR   IFR   Intensive IFR   Very Intensive IFR
Visi :
Ceiling :
>= 8 km
>= 3000ft
5 to 8 km
1000 to 3000 ft
1500m to 5 km
500 to 1000 ft
800 to 1500m
200 to 500 ft
< 800m
< 200 ft
Symbols :   Thunderstorms  Fog  Heavy snow  Heavy precipitations  Wind > 20 kt
SIGMETs :     Misc.  Thunderstorms  Icing  Turbulence  Mountain Waves  Volcanic Ashes






- Airport Elevation : 75 ft
- IATA code : MRH


EGYM - RAF Marham

CURRENT METAR :
  • 071550Z 24009KT 9999 BKN040 12/M02 Q1015 NOSIG RMK BLU BLU

EXPIRED METARs :
  • 071520Z 25011KT 9999 BKN040 12/M02 Q1015 NOSIG RMK BLU BLU
  • 071450Z 24013KT 9999 FEW030CB SCT040 13/M02 Q1015 NOSIG RMK BLU BLU
  • 071421Z 25015KT 9999 FEW030CB SCT040 13/M01 Q1015 NOSIG RMK BLU BLU
  • 071350Z 24015KT 9999 FEW030CB SCT040 13/00 Q1015 NOSIG RMK BLU BLU

TAF TAF EGYM
Valid from the 07 at 15:00 until the 07 at 20:00 UTC


071336Z 0715/0720 27008KT 9999 SCT040
TEMPO 0715/0717 7000 SHRA SCT025CB



MET'MAP, your aeronautical weather chart ! - Copyright ORBIFLY December 2007 - Disclaimer

ORBIFLY MET'MAP TEAM :

Programming & Development : Alexandra Zaïnal
Concept & original design : Baudouin d'Aumeries
Assistance for programming : Marc-Olivier Méhu
Technical & hardware support : Manuel Goepfert

Contact : metmap@orbifly.com




SOURCES & CREDITS :

   NOAA